createdAt,value
2023-04-19T00:01:07.418Z,4.63
2023-04-19T00:03:35.723Z,4.60
2023-04-19T00:06:06.113Z,4.60
2023-04-19T00:08:35.333Z,4.20
2023-04-19T00:11:03.210Z,3.80
2023-04-19T00:13:31.855Z,4.80
2023-04-19T00:16:00.144Z,4.10
2023-04-19T00:18:28.406Z,4.30
2023-04-19T00:20:56.746Z,4.53
2023-04-19T00:23:25.663Z,4.60
2023-04-19T00:25:54.657Z,4.50
2023-04-19T00:28:22.552Z,4.43
2023-04-19T00:30:50.279Z,4.57
2023-04-19T00:33:18.242Z,4.10
2023-04-19T00:35:47.186Z,4.00
2023-04-19T00:38:15.070Z,3.80
2023-04-19T00:40:46.836Z,4.00
2023-04-19T00:43:19.712Z,3.90
2023-04-19T00:45:49.108Z,4.40
2023-04-19T00:48:17.052Z,3.90
2023-04-19T00:50:46.640Z,3.30
2023-04-19T00:53:14.692Z,3.50
2023-04-19T00:55:43.548Z,3.60
2023-04-19T00:58:11.829Z,3.30
2023-04-19T01:00:41.368Z,4.33
2023-04-19T01:03:09.892Z,3.70
2023-04-19T01:05:37.728Z,3.90
2023-04-19T01:08:06.550Z,3.33
2023-04-19T01:10:34.657Z,3.37
2023-04-19T01:13:02.928Z,3.00
2023-04-19T01:15:31.404Z,3.37
2023-04-19T01:18:02.152Z,3.30
2023-04-19T01:20:30.220Z,3.70
2023-04-19T01:22:59.556Z,3.40
2023-04-19T01:25:28.440Z,3.47
2023-04-19T01:27:56.258Z,3.43
2023-04-19T01:30:25.079Z,3.03
2023-04-19T01:32:56.079Z,3.60
2023-04-19T01:35:23.840Z,3.47
2023-04-19T01:37:53.179Z,4.10
2023-04-19T01:40:23.188Z,3.33
2023-04-19T01:42:50.886Z,3.70
2023-04-19T01:45:18.961Z,3.83
2023-04-19T01:47:47.280Z,3.77
2023-04-19T01:50:15.007Z,4.23
2023-04-19T01:52:43.250Z,3.87
2023-04-19T01:55:11.688Z,3.53
2023-04-19T01:57:40.849Z,3.40
2023-04-19T02:00:09.380Z,3.30
2023-04-19T02:02:43.448Z,3.30
2023-04-19T02:05:11.696Z,3.70
2023-04-19T02:07:39.600Z,3.43
2023-04-19T02:10:11.042Z,3.40
2023-04-19T02:12:39.056Z,3.53
2023-04-19T02:15:09.288Z,3.70
2023-04-19T02:17:37.207Z,3.97
2023-04-19T02:20:05.945Z,3.70
2023-04-19T02:22:33.993Z,3.53
2023-04-19T02:25:02.383Z,3.87
2023-04-19T02:27:33.461Z,4.00
2023-04-19T02:30:02.055Z,3.53
2023-04-19T02:32:32.867Z,3.40
2023-04-19T02:35:00.937Z,3.90
2023-04-19T02:37:30.476Z,3.70
2023-04-19T02:39:58.734Z,3.13
2023-04-19T02:42:26.521Z,3.67
2023-04-19T02:44:54.695Z,3.30
2023-04-19T02:47:25.327Z,3.23
2023-04-19T02:49:54.477Z,3.70
2023-04-19T02:52:22.183Z,3.37
2023-04-19T02:54:50.159Z,3.13
2023-04-19T02:57:18.085Z,3.47
2023-04-19T02:59:46.354Z,3.40
2023-04-19T03:02:16.293Z,3.67
2023-04-19T03:04:44.145Z,3.30
2023-04-19T03:07:13.856Z,3.20
2023-04-19T03:09:42.071Z,2.50
2023-04-19T03:12:11.980Z,3.60
2023-04-19T03:14:39.736Z,3.43
2023-04-19T03:17:07.887Z,3.33
2023-04-19T03:19:36.904Z,2.87
2023-04-19T03:22:05.914Z,2.73
2023-04-19T03:24:37.980Z,3.23
2023-04-19T03:27:18.620Z,3.00
2023-04-19T03:29:50.181Z,3.50
2023-04-19T03:32:18.817Z,2.90
2023-04-19T03:34:46.475Z,3.17
2023-04-19T03:37:17.033Z,3.40
2023-04-19T03:39:46.894Z,3.50
2023-04-19T03:42:19.243Z,3.03
2023-04-19T03:44:56.242Z,3.30
2023-04-19T03:47:25.244Z,3.43
2023-04-19T03:49:57.448Z,3.30
2023-04-19T03:52:26.545Z,2.70
2023-04-19T03:54:55.859Z,2.83
2023-04-19T03:57:32.167Z,3.30
2023-04-19T04:00:04.992Z,3.07
2023-04-19T04:02:43.078Z,3.40
2023-04-19T04:05:14.433Z,3.07
2023-04-19T04:07:42.953Z,3.30
2023-04-19T04:10:12.125Z,2.90
2023-04-19T04:12:43.637Z,3.20
2023-04-19T04:15:15.667Z,3.27
2023-04-19T04:17:49.038Z,3.33
2023-04-19T04:20:17.101Z,3.10
2023-04-19T04:22:46.125Z,3.17
2023-04-19T04:25:21.137Z,3.00
2023-04-19T04:27:51.611Z,3.20
2023-04-19T04:30:21.485Z,3.30
2023-04-19T04:32:51.269Z,3.00
2023-04-19T04:35:20.886Z,3.63
2023-04-19T04:38:11.141Z,3.10
2023-04-19T04:40:53.545Z,2.80
2023-04-19T04:43:22.749Z,3.20
2023-04-19T04:45:50.673Z,2.97
2023-04-19T04:48:19.683Z,3.87
2023-04-19T04:50:47.724Z,3.23
2023-04-19T04:53:15.639Z,2.80
2023-04-19T04:55:45.809Z,3.23
2023-04-19T04:58:16.607Z,3.50
2023-04-19T05:00:54.241Z,3.50
2023-04-19T05:03:23.403Z,3.63
2023-04-19T05:05:56.597Z,3.00
2023-04-19T05:08:26.914Z,3.20
2023-04-19T05:10:59.547Z,3.40
2023-04-19T05:13:32.386Z,3.33
2023-04-19T05:16:01.354Z,3.37
2023-04-19T05:18:29.872Z,2.97
2023-04-19T05:20:57.977Z,3.07
2023-04-19T05:23:30.063Z,2.67
2023-04-19T05:25:58.803Z,3.67
2023-04-19T05:28:28.374Z,3.10
2023-04-19T05:31:11.225Z,3.30
2023-04-19T05:34:09.774Z,2.97
2023-04-19T05:36:37.947Z,3.30
2023-04-19T05:39:05.797Z,3.47
2023-04-19T05:41:33.795Z,3.30
2023-04-19T05:44:01.868Z,3.10
2023-04-19T05:46:31.724Z,2.63
2023-04-19T05:49:00.274Z,2.73
2023-04-19T05:51:28.380Z,3.10
2023-04-19T05:54:02.377Z,2.80
2023-04-19T05:56:30.832Z,3.10
2023-04-19T05:59:00.810Z,3.70
2023-04-19T06:01:28.971Z,2.40
2023-04-19T06:03:58.601Z,2.93
2023-04-19T06:06:27.501Z,2.10
2023-04-19T06:08:55.872Z,2.17
2023-04-19T06:11:31.489Z,2.63
2023-04-19T06:14:06.464Z,2.70
2023-04-19T06:16:34.663Z,2.20
2023-04-19T06:19:03.843Z,2.20
2023-04-19T06:21:32.680Z,1.90
2023-04-19T06:24:00.872Z,2.10
2023-04-19T06:26:28.581Z,2.00
2023-04-19T06:28:56.415Z,2.00
2023-04-19T06:31:24.614Z,2.47
2023-04-19T06:33:52.357Z,1.90
2023-04-19T06:36:21.476Z,2.20
2023-04-19T06:38:50.117Z,2.00
2023-04-19T06:41:17.933Z,2.47
2023-04-19T06:43:45.913Z,2.20
2023-04-19T06:46:14.069Z,2.23
2023-04-19T06:48:42.031Z,2.20
2023-04-19T06:51:09.928Z,2.70
2023-04-19T06:53:39.354Z,2.23
2023-04-19T06:56:07.558Z,2.00
2023-04-19T06:58:35.866Z,2.50
2023-04-19T07:01:05.206Z,2.50
2023-04-19T07:03:33.224Z,2.80
2023-04-19T07:06:01.020Z,3.00
2023-04-19T07:08:42.416Z,2.80
2023-04-19T07:11:20.354Z,2.53
2023-04-19T07:13:51.733Z,2.67
2023-04-19T07:16:19.773Z,2.20
2023-04-19T07:18:47.906Z,3.33
2023-04-19T07:21:16.251Z,2.50
2023-04-19T07:23:44.204Z,3.23
2023-04-19T07:26:12.313Z,2.27
2023-04-19T07:28:41.990Z,2.87
2023-04-19T07:31:15.355Z,2.70
2023-04-19T07:33:44.874Z,2.60
2023-04-19T07:36:12.649Z,2.60
2023-04-19T07:38:40.654Z,2.77
2023-04-19T07:41:09.020Z,2.50
2023-04-19T07:43:39.140Z,2.70
2023-04-19T07:46:11.817Z,2.73
2023-04-19T07:48:39.718Z,2.60
2023-04-19T07:51:11.664Z,3.17
2023-04-19T07:53:40.038Z,2.33
2023-04-19T07:56:08.389Z,2.60
2023-04-19T07:58:36.563Z,2.63
2023-04-19T08:01:04.482Z,2.67
2023-04-19T08:03:34.544Z,2.97
2023-04-19T08:06:03.354Z,4.50
2023-04-19T08:08:32.613Z,3.10
2023-04-19T08:11:02.541Z,3.43
2023-04-19T08:13:30.450Z,2.80
2023-04-19T08:18:29.277Z,3.10
2023-04-19T08:20:58.694Z,3.10
2023-04-19T08:23:32.060Z,3.40
2023-04-19T08:26:06.052Z,3.30
2023-04-19T08:28:34.046Z,3.30
2023-04-19T08:31:01.755Z,3.20
2023-04-19T08:33:29.915Z,3.07
2023-04-19T08:35:59.360Z,3.00
2023-04-19T08:38:27.149Z,3.17
2023-04-19T08:40:56.067Z,3.77
2023-04-19T08:43:25.950Z,3.50
2023-04-19T08:45:57.061Z,3.40
2023-04-19T08:48:25.540Z,3.20
2023-04-19T08:51:04.084Z,3.27
2023-04-19T08:53:36.715Z,4.00
2023-04-19T08:56:17.517Z,3.50
2023-04-19T09:01:31.039Z,3.40
2023-04-19T09:04:16.175Z,3.00
2023-04-19T09:06:51.135Z,3.20
2023-04-19T09:09:34.130Z,3.43
2023-04-19T09:12:16.581Z,3.13
2023-04-19T09:14:59.906Z,3.67
2023-04-19T09:17:31.390Z,3.30
2023-04-19T09:19:59.697Z,3.20
2023-04-19T09:22:27.504Z,3.10
2023-04-19T09:27:28.977Z,3.20
2023-04-19T09:29:57.423Z,3.50
2023-04-19T09:32:25.613Z,3.40
2023-04-19T09:34:54.506Z,3.60
2023-04-19T09:37:39.175Z,3.90
2023-04-19T09:40:24.145Z,3.60
2023-04-19T09:48:02.065Z,3.23
2023-04-19T09:50:32.271Z,3.20
2023-04-19T09:53:02.047Z,3.30
2023-04-19T09:55:41.331Z,3.80
2023-04-19T09:58:17.561Z,3.70
2023-04-19T10:00:50.132Z,4.47
2023-04-19T10:03:23.877Z,4.10
2023-04-19T10:05:52.012Z,4.27
2023-04-19T10:08:20.364Z,4.10
2023-04-19T10:10:54.814Z,3.70
2023-04-19T10:13:26.648Z,4.20
2023-04-19T10:15:59.357Z,3.80
2023-04-19T10:18:33.286Z,3.97
2023-04-19T10:21:02.665Z,4.23
2023-04-19T10:23:31.210Z,3.87
2023-04-19T10:26:00.345Z,4.00
2023-04-19T10:28:29.716Z,4.37
2023-04-19T10:31:01.035Z,3.90
2023-04-19T10:33:32.007Z,3.90
2023-04-19T10:36:00.257Z,3.73
2023-04-19T10:38:38.270Z,3.23
2023-04-19T10:41:14.539Z,3.87
2023-04-19T10:43:45.992Z,3.60
2023-04-19T10:46:17.873Z,3.80
2023-04-19T10:48:55.510Z,3.87
2023-04-19T10:51:25.092Z,4.00
2023-04-19T10:53:53.970Z,4.20
2023-04-19T10:56:26.316Z,4.10
2023-04-19T10:59:13.101Z,4.20
2023-04-19T11:01:43.602Z,3.87
2023-04-19T11:04:12.088Z,3.80
2023-04-19T11:06:57.638Z,4.10
2023-04-19T11:09:26.210Z,3.30
2023-04-19T11:11:58.600Z,4.20
2023-04-19T11:14:26.475Z,4.00
2023-04-19T11:16:54.429Z,4.10
2023-04-19T11:19:22.411Z,3.63
2023-04-19T11:21:50.677Z,4.50
2023-04-19T11:24:20.860Z,4.20
2023-04-19T11:26:51.048Z,4.10
2023-04-19T11:29:22.756Z,3.90
2023-04-19T11:31:51.550Z,4.30
2023-04-19T11:34:23.082Z,4.10
2023-04-19T11:36:52.035Z,3.90
2023-04-19T11:39:21.287Z,4.40
2023-04-19T11:41:49.072Z,4.53
2023-04-19T11:44:17.767Z,4.17
2023-04-19T11:46:58.476Z,4.00
2023-04-19T11:49:26.973Z,4.70
2023-04-19T11:51:57.146Z,4.83
2023-04-19T11:54:25.055Z,4.43
2023-04-19T11:57:03.800Z,4.07
2023-04-19T11:59:32.134Z,4.00
2023-04-19T12:02:09.118Z,3.57
2023-04-19T12:04:40.476Z,4.23
2023-04-19T12:07:08.657Z,4.00
2023-04-19T12:09:38.656Z,5.00
2023-04-19T12:12:06.914Z,6.30
2023-04-19T12:14:34.596Z,5.43
2023-04-19T12:17:08.848Z,3.90
2023-04-19T12:19:38.130Z,3.70
2023-04-19T12:22:09.568Z,4.17
2023-04-19T12:24:38.406Z,4.07
2023-04-19T12:27:06.102Z,4.70
2023-04-19T12:29:34.900Z,4.30
2023-04-19T12:32:03.029Z,4.07
2023-04-19T12:34:32.292Z,3.77
2023-04-19T12:37:00.310Z,4.57
2023-04-19T12:39:28.601Z,3.40
2023-04-19T12:41:56.270Z,4.73
2023-04-19T12:44:24.910Z,4.07
2023-04-19T12:46:57.066Z,4.47
2023-04-19T12:49:25.696Z,4.43
2023-04-19T12:51:57.081Z,4.50
2023-04-19T12:54:25.197Z,4.30
2023-04-19T12:56:53.532Z,4.60
2023-04-19T12:59:22.080Z,4.70
2023-04-19T13:01:49.989Z,5.17
2023-04-19T13:04:18.452Z,4.90
2023-04-19T13:06:46.945Z,4.80
2023-04-19T13:09:16.760Z,5.90
2023-04-19T13:11:44.453Z,5.27
2023-04-19T13:14:13.249Z,4.37
2023-04-19T13:16:41.189Z,4.63
2023-04-19T13:19:10.302Z,4.63
2023-04-19T13:21:38.430Z,5.30
2023-04-19T13:24:08.326Z,5.63
2023-04-19T13:26:37.836Z,5.17
2023-04-19T13:29:08.504Z,5.30
2023-04-19T13:31:36.527Z,4.50
2023-04-19T13:34:04.442Z,4.13
2023-04-19T13:36:55.074Z,4.70
2023-04-19T13:39:22.832Z,4.50
2023-04-19T13:41:51.858Z,4.83
2023-04-19T13:44:20.807Z,4.37
2023-04-19T13:46:48.641Z,4.83
2023-04-19T13:49:16.522Z,4.27
2023-04-19T13:51:50.134Z,4.30
2023-04-19T13:54:19.760Z,4.43
2023-04-19T13:56:50.577Z,4.13
2023-04-19T13:59:21.824Z,4.00
2023-04-19T14:01:49.858Z,4.97
2023-04-19T14:04:18.546Z,4.40
2023-04-19T14:06:46.609Z,6.73
2023-04-19T14:09:14.364Z,6.60
2023-04-19T14:11:42.189Z,4.80
2023-04-19T14:14:10.294Z,4.50
2023-04-19T14:16:39.725Z,5.00
2023-04-19T14:19:07.683Z,4.97
2023-04-19T14:21:35.653Z,4.33
2023-04-19T14:24:04.860Z,4.33
2023-04-19T14:26:32.754Z,3.60
2023-04-19T14:29:00.646Z,4.27
2023-04-19T14:31:28.567Z,4.93
2023-04-19T14:33:59.763Z,5.00
2023-04-19T14:36:27.878Z,5.23
2023-04-19T14:38:55.760Z,5.07
2023-04-19T14:41:24.821Z,6.13
2023-04-19T14:43:53.022Z,6.57
2023-04-19T14:46:21.558Z,6.47
2023-04-19T14:48:49.745Z,4.87
2023-04-19T14:51:19.061Z,5.30
2023-04-19T14:53:47.472Z,4.97
2023-04-19T14:56:15.567Z,5.60
2023-04-19T14:58:43.410Z,5.70
2023-04-19T15:01:11.797Z,4.80
2023-04-19T15:03:40.625Z,6.20
2023-04-19T15:06:08.989Z,6.63
2023-04-19T15:08:38.315Z,8.07
2023-04-19T15:11:06.369Z,7.80
2023-04-19T15:13:35.490Z,7.77
2023-04-19T15:16:03.975Z,7.57
2023-04-19T15:18:32.296Z,8.80
2023-04-19T15:21:00.343Z,7.43
2023-04-19T15:23:28.351Z,9.90
2023-04-19T15:25:57.972Z,8.13
2023-04-19T15:28:25.810Z,8.80
2023-04-19T15:31:01.855Z,7.50
2023-04-19T15:33:30.130Z,8.20
2023-04-19T15:35:58.476Z,8.80
2023-04-19T15:38:27.478Z,9.03
2023-04-19T15:40:55.368Z,7.80
2023-04-19T15:43:25.193Z,8.73
2023-04-19T15:45:53.617Z,9.10
2023-04-19T15:48:21.856Z,9.60
2023-04-19T15:50:50.620Z,9.53
2023-04-19T15:53:18.538Z,10.60
2023-04-19T15:55:48.144Z,10.10
2023-04-19T15:58:16.507Z,11.53
2023-04-19T16:00:45.836Z,10.10
2023-04-19T16:03:13.908Z,11.10
2023-04-19T16:05:42.066Z,10.50
2023-04-19T16:08:11.780Z,13.83
2023-04-19T16:10:39.776Z,12.70
2023-04-19T16:13:07.897Z,11.43
2023-04-19T16:15:36.126Z,11.60
2023-04-19T16:18:05.318Z,11.93
2023-04-19T16:20:33.463Z,12.27
2023-04-19T16:23:03.407Z,12.77
2023-04-19T16:25:31.540Z,14.70
2023-04-19T16:27:59.255Z,14.13
2023-04-19T16:30:31.113Z,14.53
2023-04-19T16:32:59.294Z,13.23
2023-04-19T16:35:28.649Z,14.63
2023-04-19T16:37:57.863Z,15.17
2023-04-19T16:40:25.851Z,14.10
2023-04-19T16:42:53.656Z,14.37
2023-04-19T16:45:21.623Z,14.33
2023-04-19T16:47:49.440Z,14.47
2023-04-19T16:50:17.513Z,13.70
2023-04-19T16:52:46.596Z,17.20
2023-04-19T16:55:15.372Z,15.10
2023-04-19T16:57:43.443Z,14.50
2023-04-19T17:00:12.041Z,15.70
2023-04-19T17:02:40.037Z,14.90
2023-04-19T17:05:08.716Z,17.20
2023-04-19T17:07:36.712Z,16.27
2023-04-19T17:10:06.212Z,16.40
2023-04-19T17:12:34.391Z,15.67
2023-04-19T17:15:02.402Z,16.40
2023-04-19T17:17:32.900Z,17.00
2023-04-19T17:20:01.373Z,15.03
2023-04-19T17:22:29.587Z,33.33
2023-04-19T17:24:58.832Z,17.70
2023-04-19T17:27:28.820Z,16.67
2023-04-19T17:29:56.610Z,13.43
2023-04-19T17:32:24.684Z,15.63
2023-04-19T17:34:52.835Z,14.20
2023-04-19T17:37:20.586Z,14.80
2023-04-19T17:39:51.740Z,14.83
2023-04-19T17:42:19.978Z,17.10
2023-04-19T17:44:50.421Z,16.13
2023-04-19T17:47:19.736Z,17.60
2023-04-19T17:49:47.972Z,16.77
2023-04-19T17:52:16.045Z,15.60
2023-04-19T17:54:43.961Z,16.60
2023-04-19T17:57:11.758Z,16.57
2023-04-19T17:59:39.433Z,16.80
2023-04-19T18:02:10.411Z,19.80
2023-04-19T18:04:39.638Z,14.63
2023-04-19T18:07:07.683Z,15.93
2023-04-19T18:09:35.625Z,13.53
2023-04-19T18:12:04.081Z,16.40
2023-04-19T18:14:32.379Z,16.67
2023-04-19T18:17:00.529Z,14.90
2023-04-19T18:19:29.907Z,16.87
2023-04-19T18:22:05.077Z,16.50
2023-04-19T18:24:33.125Z,17.03
2023-04-19T18:27:02.686Z,17.70
2023-04-19T18:29:30.653Z,19.77
2023-04-19T18:31:58.501Z,18.40
2023-04-19T18:34:29.904Z,21.03
2023-04-19T18:36:59.230Z,22.90
2023-04-19T18:39:27.726Z,20.30
2023-04-19T18:41:58.182Z,20.93
2023-04-19T18:44:49.567Z,20.10
2023-04-19T18:47:14.790Z,21.00
2023-04-19T18:49:52.903Z,21.70
2023-04-19T18:52:31.259Z,23.20
2023-04-19T18:54:59.076Z,20.70
2023-04-19T18:57:27.765Z,23.03
2023-04-19T18:59:56.877Z,25.90
2023-04-19T19:02:25.126Z,31.93
2023-04-19T19:04:58.260Z,44.37
2023-04-19T19:10:02.449Z,21.20
2023-04-19T19:12:33.827Z,22.80
2023-04-19T19:15:01.568Z,21.67
2023-04-19T19:17:29.323Z,22.50
2023-04-19T19:19:59.752Z,23.17
2023-04-19T19:22:28.966Z,22.70
2023-04-19T19:24:57.040Z,22.67
2023-04-19T19:27:25.008Z,23.17
2023-04-19T19:29:52.736Z,23.97
2023-04-19T19:32:20.725Z,24.47
2023-04-19T19:37:22.401Z,22.93
2023-04-19T19:39:50.611Z,23.73
2023-04-19T19:42:23.355Z,24.70
2023-04-19T19:44:54.091Z,23.43
2023-04-19T19:47:22.068Z,24.00
2023-04-19T19:50:34.828Z,24.03
2023-04-19T19:52:39.753Z,25.40
2023-04-19T19:55:12.184Z,28.17
2023-04-19T20:00:36.665Z,27.30
2023-04-19T20:03:00.543Z,25.00
2023-04-19T20:05:29.182Z,26.70
2023-04-19T20:08:08.122Z,24.03
2023-04-19T20:10:37.125Z,25.30
2023-04-19T20:13:07.040Z,26.07
2023-04-19T20:15:35.419Z,25.13
2023-04-19T20:18:03.565Z,26.30
2023-04-19T20:20:31.566Z,26.13
2023-04-19T20:22:59.534Z,25.47
2023-04-19T20:25:31.017Z,23.00
2023-04-19T20:27:59.635Z,32.73
2023-04-19T20:30:27.463Z,32.20
2023-04-19T20:32:57.907Z,26.33
2023-04-19T20:35:27.040Z,26.30
2023-04-19T20:37:54.766Z,28.43
2023-04-19T20:40:22.933Z,25.20
2023-04-19T20:42:52.256Z,23.23
2023-04-19T20:45:20.006Z,30.70
2023-04-19T20:47:48.862Z,25.07
2023-04-19T20:50:16.575Z,29.70
2023-04-19T20:52:44.613Z,25.43
2023-04-19T20:55:13.728Z,23.77
2023-04-19T20:57:42.246Z,20.90
2023-04-19T21:00:18.140Z,22.20
2023-04-19T21:02:47.304Z,22.53
2023-04-19T21:05:16.262Z,20.47
2023-04-19T21:07:44.170Z,23.13
2023-04-19T21:10:13.986Z,23.07
2023-04-19T21:12:41.647Z,22.63
2023-04-19T21:15:12.268Z,22.20
2023-04-19T21:17:41.712Z,21.40
2023-04-19T21:20:17.898Z,22.43
2023-04-19T21:22:46.917Z,21.00
2023-04-19T21:25:15.599Z,23.30
2023-04-19T21:27:43.385Z,21.97
2023-04-19T21:30:13.314Z,21.20
2023-04-19T21:32:41.606Z,21.23
2023-04-19T21:35:09.830Z,22.30
2023-04-19T21:37:38.119Z,22.80
2023-04-19T21:40:06.411Z,22.83
2023-04-19T21:42:34.621Z,22.00
2023-04-19T21:45:02.652Z,23.23
2023-04-19T21:47:32.251Z,21.20
2023-04-19T21:50:00.266Z,25.10
2023-04-19T21:52:27.948Z,21.40
2023-04-19T21:54:56.838Z,20.50
2023-04-19T21:57:26.895Z,21.90
2023-04-19T21:59:54.861Z,22.17
2023-04-19T22:02:22.717Z,21.63
2023-04-19T22:04:52.695Z,21.43
2023-04-19T22:07:20.648Z,22.00
2023-04-19T22:09:48.374Z,21.50
2023-04-19T22:12:16.076Z,20.47
2023-04-19T22:14:44.398Z,21.67
2023-04-19T22:17:12.497Z,22.67
2023-04-19T22:19:40.480Z,23.40
2023-04-19T22:22:09.769Z,21.37
2023-04-19T22:24:46.838Z,21.57
2023-04-19T22:27:25.352Z,20.50
2023-04-19T22:29:53.155Z,20.93
2023-04-19T22:32:20.912Z,20.03
2023-04-19T22:34:48.971Z,19.40
2023-04-19T22:37:18.057Z,20.30
2023-04-19T22:39:46.033Z,19.53
2023-04-19T22:42:13.754Z,19.80
2023-04-19T22:44:42.188Z,21.70
2023-04-19T22:47:11.758Z,18.80
2023-04-19T22:49:42.996Z,20.07
2023-04-19T22:52:11.594Z,20.60
2023-04-19T22:54:40.820Z,19.00
2023-04-19T22:57:08.758Z,17.63
2023-04-19T22:59:36.793Z,27.80
2023-04-19T23:02:04.608Z,17.93
2023-04-19T23:04:33.983Z,20.73
2023-04-19T23:07:02.122Z,22.53
2023-04-19T23:09:30.331Z,19.77
2023-04-19T23:12:00.468Z,17.30
2023-04-19T23:14:29.605Z,19.23
2023-04-19T23:16:58.332Z,17.37
2023-04-19T23:19:26.346Z,17.17
2023-04-19T23:21:54.614Z,16.03
2023-04-19T23:24:22.521Z,15.83
2023-04-19T23:26:50.335Z,17.90
2023-04-19T23:29:19.657Z,20.43
2023-04-19T23:31:47.480Z,16.37
2023-04-19T23:34:15.189Z,17.23
2023-04-19T23:36:43.311Z,19.07
2023-04-19T23:39:11.019Z,16.80
2023-04-19T23:41:38.950Z,18.00
2023-04-19T23:44:06.742Z,14.53
2023-04-19T23:46:36.228Z,16.57
2023-04-19T23:49:04.245Z,16.50
2023-04-19T23:51:33.234Z,15.20
2023-04-19T23:54:00.998Z,15.80
2023-04-19T23:56:28.696Z,13.50
2023-04-19T23:58:56.594Z,16.03
